createdAt,value
2023-11-15T00:00:18.342Z,99683.62
2023-11-15T00:01:18.621Z,99680.01
2023-11-15T00:02:19.089Z,99675.87
2023-11-15T00:03:19.247Z,99671.92
2023-11-15T00:04:19.850Z,99667.40
2023-11-15T00:05:21.044Z,99661.94
2023-11-15T00:06:20.945Z,99656.03
2023-11-15T00:07:21.337Z,99649.56
2023-11-15T00:08:21.856Z,99642.58
2023-11-15T00:09:22.820Z,99635.19
2023-11-15T00:10:23.741Z,99627.77
2023-11-15T00:11:24.763Z,99620.28
2023-11-15T00:12:25.136Z,99613.02
2023-11-15T00:13:25.352Z,99605.36
2023-11-15T00:14:25.394Z,99599.28
2023-11-15T00:15:27.371Z,99592.13
2023-11-15T00:15:35.375Z,99639.56
2023-11-15T00:16:35.602Z,99482.61
2023-11-15T00:17:35.904Z,99481.86
2023-11-15T00:18:36.570Z,99481.11
2023-11-15T00:19:37.362Z,99479.81
2023-11-15T00:20:37.870Z,99477.78
2023-11-15T00:21:38.313Z,99475.42
2023-11-15T00:22:38.997Z,99473.23
2023-11-15T00:23:39.468Z,99470.78
2023-11-15T00:24:39.975Z,99468.42
2023-11-15T00:25:40.915Z,99465.44
2023-11-15T00:26:41.417Z,99463.11
2023-11-15T00:27:42.169Z,99461.15
2023-11-15T00:28:43.137Z,99458.65
2023-11-15T00:29:43.526Z,99457.16
2023-11-15T00:30:43.765Z,99455.84
2023-11-15T00:31:44.587Z,99454.53
2023-11-15T00:32:45.139Z,99453.96
2023-11-15T00:33:45.680Z,99453.34
2023-11-15T00:34:46.542Z,99453.45
2023-11-15T00:35:47.634Z,99453.20
2023-11-15T00:36:48.200Z,99453.55
2023-11-15T00:37:48.866Z,99454.16
2023-11-15T00:38:49.937Z,99454.94
2023-11-15T00:39:50.778Z,99456.14
2023-11-15T00:40:51.000Z,99457.18
2023-11-15T00:41:51.568Z,99458.13
2023-11-15T00:42:52.048Z,99460.09
2023-11-15T00:43:52.451Z,99461.81
2023-11-15T00:44:52.541Z,99462.92
2023-11-15T00:45:53.447Z,99464.38
2023-11-15T00:46:54.010Z,99465.84
2023-11-15T00:47:54.946Z,99466.62
2023-11-15T00:48:55.760Z,99468.58
2023-11-15T00:49:56.661Z,99470.51
2023-11-15T00:50:06.316Z,99664.05
2023-11-15T00:51:06.640Z,99500.55
2023-11-15T00:52:07.320Z,99500.64
2023-11-15T00:53:08.039Z,99501.41
2023-11-15T00:54:08.102Z,99500.48
2023-11-15T00:55:08.261Z,99500.15
2023-11-15T00:56:08.405Z,99499.81
2023-11-15T00:57:09.190Z,99499.81
2023-11-15T00:58:09.756Z,99499.81
2023-11-15T00:59:10.631Z,99501.82
2023-11-15T01:00:11.359Z,99503.67
2023-11-15T01:01:12.179Z,99505.28
2023-11-15T01:02:12.622Z,99505.88
2023-11-15T01:03:13.663Z,99508.08
2023-11-15T01:04:14.405Z,99509.59
2023-11-15T01:05:14.376Z,99510.94
2023-11-15T01:06:14.929Z,99512.63
2023-11-15T01:07:15.030Z,99514.48
2023-11-15T01:08:16.010Z,99515.95
2023-11-15T01:09:16.670Z,99516.89
2023-11-15T01:10:17.483Z,99517.15
2023-11-15T01:11:18.445Z,99517.82
2023-11-15T01:12:18.924Z,99517.39
2023-11-15T01:13:19.138Z,99517.98
2023-11-15T01:14:20.167Z,99517.64
2023-11-15T01:15:20.220Z,99517.52
2023-11-15T01:16:20.665Z,99517.84
2023-11-15T01:17:21.257Z,99518.25
2023-11-15T01:18:21.505Z,99518.71
2023-11-15T01:19:22.137Z,99519.88
2023-11-15T01:20:22.895Z,99521.86
2023-11-15T01:21:22.934Z,99523.71
2023-11-15T01:22:22.977Z,99525.52
2023-11-15T01:23:23.779Z,99528.53
2023-11-15T01:24:24.681Z,99531.31
2023-11-15T01:25:25.177Z,99534.39
2023-11-15T01:25:33.846Z,99743.38
2023-11-15T01:26:33.994Z,99572.84
2023-11-15T01:27:34.700Z,99572.67
2023-11-15T01:28:35.349Z,99573.09
2023-11-15T01:29:36.054Z,99573.42
2023-11-15T01:30:36.777Z,99573.68
2023-11-15T01:31:36.946Z,99573.92
2023-11-15T01:32:37.649Z,99573.85
2023-11-15T01:33:38.110Z,99574.02
2023-11-15T01:34:38.734Z,99574.09
2023-11-15T01:35:39.445Z,99574.60
2023-11-15T01:36:39.705Z,99575.36
2023-11-15T01:37:40.450Z,99576.27
2023-11-15T01:38:40.709Z,99576.78
2023-11-15T01:39:40.884Z,99577.80
2023-11-15T01:40:41.213Z,99578.64
2023-11-15T01:42:00.716Z,99578.89
2023-11-15T01:43:01.213Z,99579.23
2023-11-15T01:44:01.186Z,99579.41
2023-11-15T01:45:02.002Z,99579.65
2023-11-15T01:46:02.561Z,99580.03
2023-11-15T01:47:02.656Z,99581.28
2023-11-15T01:48:03.632Z,99581.87
2023-11-15T01:49:04.575Z,99582.87
2023-11-15T01:50:05.350Z,99584.28
2023-11-15T01:51:06.159Z,99585.29
2023-11-15T01:52:06.308Z,99586.88
2023-11-15T01:53:06.827Z,99588.81
2023-11-15T01:54:07.536Z,99590.96
2023-11-15T01:55:08.124Z,99592.73
2023-11-15T01:56:08.780Z,99594.91
2023-11-15T01:57:08.998Z,99597.14
2023-11-15T01:58:09.914Z,99599.75
2023-11-15T01:59:10.322Z,99602.02
2023-11-15T01:59:19.071Z,99812.53
2023-11-15T02:00:19.763Z,99652.78
2023-11-15T02:01:20.144Z,99652.38
2023-11-15T02:02:20.228Z,99652.55
2023-11-15T02:03:20.640Z,99653.38
2023-11-15T02:04:21.253Z,99654.06
2023-11-15T02:05:21.610Z,99654.56
2023-11-15T02:06:22.413Z,99654.83
2023-11-15T02:07:22.447Z,99654.91
2023-11-15T02:08:23.219Z,99655.21
2023-11-15T02:09:23.933Z,99655.64
2023-11-15T02:10:24.570Z,99656.14
2023-11-15T02:11:25.399Z,99656.82
2023-11-15T02:12:26.065Z,99658.00
2023-11-15T02:13:26.341Z,99659.42
2023-11-15T02:14:27.133Z,99660.22
2023-11-15T02:15:27.980Z,99662.23
2023-11-15T02:16:28.856Z,99663.95
2023-11-15T02:17:29.161Z,99666.09
2023-11-15T02:18:29.741Z,99668.33
2023-11-15T02:19:30.248Z,99670.75
2023-11-15T02:20:30.899Z,99673.22
2023-11-15T02:21:31.738Z,99676.53
2023-11-15T02:22:32.447Z,99680.27
2023-11-15T02:23:33.017Z,99684.44
2023-11-15T02:24:33.626Z,99689.60
2023-11-15T02:25:33.626Z,99694.57
2023-11-15T02:26:34.260Z,99699.74
2023-11-15T02:27:35.102Z,99705.92
2023-11-15T02:28:36.045Z,99712.02
2023-11-15T02:29:36.900Z,99718.03
2023-11-15T02:30:36.999Z,99724.55
2023-11-15T02:31:37.765Z,99731.82
2023-11-15T02:32:38.639Z,99737.76
2023-11-15T02:32:47.929Z,99985.84
2023-11-15T02:33:48.597Z,99839.20
2023-11-15T02:34:49.701Z,99839.95
2023-11-15T02:35:49.237Z,99840.89
2023-11-15T02:36:49.449Z,99842.92
2023-11-15T02:37:50.316Z,99844.61
2023-11-15T02:38:50.958Z,99847.14
2023-11-15T02:39:51.876Z,99850.42
2023-11-15T02:40:52.116Z,99853.37
2023-11-15T02:41:52.228Z,99856.31
2023-11-15T02:42:52.986Z,99859.98
2023-11-15T02:43:53.686Z,99863.44
2023-11-15T02:44:54.317Z,99867.95
2023-11-15T02:45:54.442Z,99871.56
2023-11-15T02:46:55.194Z,99875.53
2023-11-15T02:47:56.058Z,99879.36
2023-11-15T02:48:56.368Z,99884.25
2023-11-15T02:49:56.619Z,99888.00
2023-11-15T02:50:57.164Z,99892.21
2023-11-15T02:51:57.374Z,99897.06
2023-11-15T02:52:57.649Z,99901.77
2023-11-15T02:53:58.624Z,99906.41
2023-11-15T02:54:58.900Z,99910.59
2023-11-15T02:55:59.579Z,99915.05
2023-11-15T02:57:00.416Z,99919.69
2023-11-15T02:58:00.782Z,99924.45
2023-11-15T02:59:01.212Z,99929.09
2023-11-15T03:00:02.055Z,99933.48
2023-11-15T03:01:02.153Z,99938.28
2023-11-15T03:02:02.502Z,99942.89
2023-11-15T03:03:02.746Z,99946.84
2023-11-15T03:04:02.903Z,99951.82
2023-11-15T03:05:03.017Z,99956.96
2023-11-15T03:06:03.578Z,99962.58
2023-11-15T03:07:04.552Z,99968.06
2023-11-15T03:07:16.222Z,100178.50
2023-11-15T03:08:16.498Z,100046.41
2023-11-15T03:09:17.443Z,100047.33
2023-11-15T03:10:17.527Z,100048.33
2023-11-15T03:11:17.675Z,100049.73
2023-11-15T03:12:18.216Z,100051.25
2023-11-15T03:13:18.460Z,100052.59
2023-11-15T03:14:19.216Z,100053.95
2023-11-15T03:15:19.254Z,100055.97
2023-11-15T03:16:19.391Z,100057.45
2023-11-15T03:17:20.012Z,100059.13
2023-11-15T03:18:20.498Z,100060.48
2023-11-15T03:19:21.294Z,100061.75
2023-11-15T03:20:22.072Z,100062.78
2023-11-15T03:21:22.736Z,100064.67
2023-11-15T03:22:23.498Z,100066.45
2023-11-15T03:23:24.461Z,100067.84
2023-11-15T03:24:25.155Z,100068.95
2023-11-15T03:25:25.766Z,100070.22
2023-11-15T03:26:26.834Z,100071.66
2023-11-15T03:27:27.329Z,100072.50
2023-11-15T03:28:28.160Z,100073.52
2023-11-15T03:29:28.858Z,100074.20
2023-11-15T03:30:28.980Z,100076.30
2023-11-15T03:31:29.719Z,100077.73
2023-11-15T03:32:30.601Z,100079.88
2023-11-15T03:33:31.305Z,100081.98
2023-11-15T03:34:32.177Z,100083.32
2023-11-15T03:35:32.754Z,100085.97
2023-11-15T03:36:33.431Z,100087.45
2023-11-15T03:37:33.706Z,100090.44
2023-11-15T03:38:33.806Z,100093.30
2023-11-15T03:39:34.395Z,100096.97
2023-11-15T03:39:43.028Z,100281.03
2023-11-15T03:40:43.514Z,100155.97
2023-11-15T03:41:44.541Z,100155.97
2023-11-15T03:42:44.544Z,100156.82
2023-11-15T03:43:45.345Z,100157.75
2023-11-15T03:44:46.218Z,100158.43
2023-11-15T03:45:46.967Z,100158.94
2023-11-15T03:46:47.504Z,100159.86
2023-11-15T03:47:48.383Z,100159.69
2023-11-15T03:48:48.309Z,100161.28
2023-11-15T03:49:48.609Z,100162.52
2023-11-15T03:50:49.244Z,100164.62
2023-11-15T03:51:50.174Z,100166.06
2023-11-15T03:52:50.582Z,100167.03
2023-11-15T03:53:51.517Z,100168.05
2023-11-15T03:54:52.072Z,100169.32
2023-11-15T03:55:52.873Z,100170.38
2023-11-15T03:56:53.033Z,100170.73
2023-11-15T03:57:53.729Z,100171.45
2023-11-15T03:58:54.197Z,100171.22
2023-11-15T03:59:55.066Z,100171.44
2023-11-15T04:00:55.137Z,100171.02
2023-11-15T04:01:57.761Z,100171.12
2023-11-15T04:02:55.861Z,100171.17
2023-11-15T04:03:56.767Z,100170.62
2023-11-15T04:04:57.339Z,100169.75
2023-11-15T04:05:58.189Z,100168.95
2023-11-15T04:06:59.102Z,100167.24
2023-11-15T04:07:59.790Z,100165.73
2023-11-15T04:09:00.312Z,100164.09
2023-11-15T04:10:01.139Z,100162.45
2023-11-15T04:11:01.243Z,100159.90
2023-11-15T04:11:09.943Z,100256.84
2023-11-15T04:12:10.578Z,100120.20
2023-11-15T04:13:10.623Z,100119.98
2023-11-15T04:14:11.557Z,100120.50
2023-11-15T04:15:12.357Z,100120.83
2023-11-15T04:16:12.558Z,100120.16
2023-11-15T04:17:13.198Z,100120.28
2023-11-15T04:18:13.478Z,100120.11
2023-11-15T04:19:14.361Z,100119.95
2023-11-15T04:20:15.197Z,100119.61
2023-11-15T04:21:15.786Z,100118.94
2023-11-15T04:22:16.091Z,100118.84
2023-11-15T04:23:16.460Z,100118.30
2023-11-15T04:24:17.288Z,100118.45
2023-11-15T04:25:17.440Z,100117.19
2023-11-15T04:26:18.426Z,100116.88
2023-11-15T04:27:19.329Z,100117.01
2023-11-15T04:28:20.121Z,100117.50
2023-11-15T04:29:20.835Z,100118.23
2023-11-15T04:30:21.001Z,100119.32
2023-11-15T04:31:21.868Z,100119.73
2023-11-15T04:32:22.669Z,100120.08
2023-11-15T04:33:23.664Z,100120.75
2023-11-15T04:34:24.461Z,100121.76
2023-11-15T04:35:25.211Z,100122.44
2023-11-15T04:36:25.156Z,100123.19
2023-11-15T04:37:25.832Z,100124.70
2023-11-15T04:38:26.208Z,100126.05
2023-11-15T04:39:26.551Z,100126.31
2023-11-15T04:40:27.518Z,100128.08
2023-11-15T04:41:28.052Z,100128.76
2023-11-15T04:42:27.949Z,100130.28
2023-11-15T04:43:28.243Z,100131.67
2023-11-15T04:44:29.134Z,100132.34
2023-11-15T04:44:38.172Z,100279.84
2023-11-15T04:45:38.270Z,100148.61
2023-11-15T04:46:38.349Z,100148.19
2023-11-15T04:47:38.679Z,100148.61
2023-11-15T04:48:39.422Z,100149.03
2023-11-15T04:49:39.603Z,100149.30
2023-11-15T04:50:40.522Z,100149.92
2023-11-15T04:51:41.528Z,100149.93
2023-11-15T04:52:41.523Z,100150.48
2023-11-15T04:53:42.410Z,100150.83
2023-11-15T04:54:43.067Z,100150.62
2023-11-15T04:55:43.375Z,100150.66
2023-11-15T04:56:43.938Z,100150.26
2023-11-15T04:57:44.994Z,100150.30
2023-11-15T04:58:45.073Z,100149.80
2023-11-15T04:59:45.114Z,100149.00
2023-11-15T05:00:45.167Z,100148.34
2023-11-15T05:01:45.841Z,100147.70
2023-11-15T05:02:46.444Z,100145.64
2023-11-15T05:03:47.007Z,100144.64
2023-11-15T05:04:49.136Z,100144.01
2023-11-15T05:05:47.478Z,100142.33
2023-11-15T05:06:48.135Z,100140.85
2023-11-15T05:07:48.391Z,100139.17
2023-11-15T05:08:49.069Z,100137.78
2023-11-15T05:09:49.518Z,100135.72
2023-11-15T05:10:50.275Z,100134.04
2023-11-15T05:11:50.433Z,100132.39
2023-11-15T05:12:51.012Z,100131.22
2023-11-15T05:13:51.618Z,100129.92
2023-11-15T05:14:52.510Z,100128.91
2023-11-15T05:15:52.939Z,100127.66
2023-11-15T05:16:53.502Z,100126.09
2023-11-15T05:17:03.727Z,100237.98
2023-11-15T05:18:04.837Z,100091.42
2023-11-15T05:19:04.780Z,100091.34
2023-11-15T05:20:05.282Z,100091.42
2023-11-15T05:21:05.419Z,100090.74
2023-11-15T05:22:06.212Z,100090.11
2023-11-15T05:23:06.954Z,100089.95
2023-11-15T05:24:07.621Z,100090.70
2023-11-15T05:25:08.302Z,100091.72
2023-11-15T05:26:08.903Z,100092.63
2023-11-15T05:27:09.731Z,100093.48
2023-11-15T05:28:10.196Z,100094.49
2023-11-15T05:29:10.303Z,100095.67
2023-11-15T05:30:11.043Z,100096.77
2023-11-15T05:31:11.961Z,100098.46
2023-11-15T05:32:12.563Z,100100.66
2023-11-15T05:33:13.234Z,100102.68
2023-11-15T05:34:13.719Z,100104.61
2023-11-15T05:35:14.288Z,100107.61
2023-11-15T05:36:14.881Z,100109.80
2023-11-15T05:37:15.397Z,100112.75
2023-11-15T05:38:16.320Z,100115.95
2023-11-15T05:39:16.309Z,100118.74
2023-11-15T05:40:17.223Z,100121.02
2023-11-15T05:41:18.123Z,100123.89
2023-11-15T05:42:18.800Z,100126.38
2023-11-15T05:43:19.730Z,100127.98
2023-11-15T05:44:20.369Z,100129.55
2023-11-15T05:45:21.050Z,100132.16
2023-11-15T05:46:21.603Z,100133.81
2023-11-15T05:47:22.426Z,100135.51
2023-11-15T05:48:22.719Z,100136.66
2023-11-15T05:48:31.299Z,100287.48
2023-11-15T05:49:31.820Z,100150.07
2023-11-15T05:50:32.383Z,100149.34
2023-11-15T05:51:33.003Z,100148.77
2023-11-15T05:52:33.722Z,100147.84
2023-11-15T05:53:34.125Z,100147.08
2023-11-15T05:54:34.139Z,100146.36
2023-11-15T05:55:34.410Z,100146.02
2023-11-15T05:56:35.407Z,100143.75
2023-11-15T05:57:36.105Z,100142.23
2023-11-15T05:58:36.893Z,100140.46
2023-11-15T05:59:37.473Z,100139.50
2023-11-15T06:00:37.982Z,100139.07
2023-11-15T06:01:38.755Z,100138.30
2023-11-15T06:02:39.525Z,100137.88
2023-11-15T06:03:40.425Z,100138.27
2023-11-15T06:04:40.914Z,100138.09
2023-11-15T06:05:41.742Z,100138.93
2023-11-15T06:06:42.193Z,100139.52
2023-11-15T06:07:42.980Z,100141.16
2023-11-15T06:08:43.343Z,100141.91
2023-11-15T06:09:43.426Z,100142.55
2023-11-15T06:10:44.032Z,100143.88
2023-11-15T06:11:44.532Z,100145.87
2023-11-15T06:12:45.145Z,100147.47
2023-11-15T06:13:45.817Z,100148.89
2023-11-15T06:14:46.334Z,100150.45
2023-11-15T06:15:46.643Z,100152.47
2023-11-15T06:16:47.257Z,100154.41
2023-11-15T06:17:47.816Z,100157.41
2023-11-15T06:18:48.492Z,100159.84
2023-11-15T06:19:58.085Z,100162.63
2023-11-15T06:20:49.558Z,100165.87
2023-11-15T06:21:49.928Z,100168.74
2023-11-15T06:22:50.686Z,100172.20
2023-11-15T06:22:59.374Z,100348.33
2023-11-15T06:23:59.567Z,100217.94
2023-11-15T06:25:00.420Z,100217.72
2023-11-15T06:26:00.840Z,100217.55
2023-11-15T06:27:01.599Z,100217.30
2023-11-15T06:28:02.398Z,100216.87
2023-11-15T06:29:03.135Z,100216.87
2023-11-15T06:30:03.880Z,100217.00
2023-11-15T06:31:03.834Z,100218.17
2023-11-15T06:32:04.056Z,100219.06
2023-11-15T06:33:04.386Z,100220.91
2023-11-15T06:34:04.800Z,100222.47
2023-11-15T06:35:04.909Z,100225.12
2023-11-15T06:36:05.093Z,100227.65
2023-11-15T06:37:05.577Z,100229.25
2023-11-15T06:38:05.589Z,100231.32
2023-11-15T06:39:06.338Z,100233.77
2023-11-15T06:40:06.337Z,100234.34
2023-11-15T06:41:06.879Z,100236.50
2023-11-15T06:42:08.836Z,100239.19
2023-11-15T06:43:08.373Z,100242.19
2023-11-15T06:44:08.474Z,100245.55
2023-11-15T06:45:09.074Z,100248.59
2023-11-15T06:46:09.766Z,100252.13
2023-11-15T06:47:10.582Z,100254.83
2023-11-15T06:48:11.508Z,100257.62
2023-11-15T06:49:12.412Z,100260.91
2023-11-15T06:50:12.848Z,100263.66
2023-11-15T06:51:13.206Z,100266.02
2023-11-15T06:52:13.754Z,100268.81
2023-11-15T06:53:14.444Z,100271.55
2023-11-15T06:54:14.953Z,100273.54
2023-11-15T06:55:15.290Z,100275.86
2023-11-15T06:55:23.918Z,100433.70
2023-11-15T06:56:24.590Z,100306.86
2023-11-15T06:57:25.589Z,100306.27
2023-11-15T06:58:25.793Z,100305.25
2023-11-15T06:59:26.568Z,100305.34
2023-11-15T07:00:27.209Z,100305.09
2023-11-15T07:01:27.349Z,100305.25
2023-11-15T07:02:27.917Z,100305.50
2023-11-15T07:03:28.349Z,100305.50
2023-11-15T07:04:29.181Z,100306.18
2023-11-15T07:05:29.743Z,100306.10
2023-11-15T07:06:30.320Z,100306.61
2023-11-15T07:07:30.995Z,100306.48
2023-11-15T07:08:31.757Z,100306.30
2023-11-15T07:09:32.457Z,100306.30
2023-11-15T07:10:32.957Z,100306.64
2023-11-15T07:11:33.905Z,100307.16
2023-11-15T07:12:34.398Z,100308.58
2023-11-15T07:13:35.082Z,100309.42
2023-11-15T07:14:35.742Z,100310.94
2023-11-15T07:15:36.214Z,100312.00
2023-11-15T07:16:36.995Z,100312.97
2023-11-15T07:17:37.803Z,100313.98
2023-11-15T07:18:38.661Z,100314.41
2023-11-15T07:19:39.483Z,100315.04
2023-11-15T07:20:40.206Z,100315.47
2023-11-15T07:21:40.938Z,100315.94
2023-11-15T07:22:41.898Z,100316.23
2023-11-15T07:23:42.511Z,100316.70
2023-11-15T07:24:42.618Z,100316.88
2023-11-15T07:25:42.512Z,100317.09
2023-11-15T07:26:43.262Z,100317.44
2023-11-15T07:26:52.428Z,100460.58
2023-11-15T07:27:53.114Z,100323.20
2023-11-15T07:28:53.181Z,100323.72
2023-11-15T07:29:54.794Z,100324.48
2023-11-15T07:30:54.279Z,100325.10
2023-11-15T07:31:55.239Z,100325.36
2023-11-15T07:32:55.372Z,100325.28
2023-11-15T07:33:55.866Z,100326.46
2023-11-15T07:34:56.621Z,100327.39
2023-11-15T07:35:57.158Z,100327.85
2023-11-15T07:36:57.706Z,100328.70
2023-11-15T07:37:58.174Z,100329.30
2023-11-15T07:38:59.126Z,100330.01
2023-11-15T07:39:59.241Z,100329.84
2023-11-15T07:41:00.218Z,100330.14
2023-11-15T07:42:00.524Z,100329.59
2023-11-15T07:43:01.462Z,100328.59
2023-11-15T07:44:02.253Z,100327.95
2023-11-15T07:45:02.947Z,100328.17
2023-11-15T07:46:03.225Z,100326.98
2023-11-15T07:47:03.990Z,100327.32
2023-11-15T07:48:04.726Z,100327.32
2023-11-15T07:49:05.116Z,100327.40
2023-11-15T07:50:05.787Z,100327.70
2023-11-15T07:51:06.513Z,100328.16
2023-11-15T07:52:07.009Z,100329.25
2023-11-15T07:53:07.064Z,100330.30
2023-11-15T07:54:07.349Z,100331.65
2023-11-15T07:55:07.831Z,100332.11
2023-11-15T07:56:08.595Z,100333.28
2023-11-15T07:57:09.281Z,100334.34
2023-11-15T07:58:09.908Z,100335.81
2023-11-15T07:59:10.536Z,100338.42
2023-11-15T07:59:19.180Z,100505.36
2023-11-15T08:00:19.742Z,100371.47
2023-11-15T08:01:20.025Z,100371.55
2023-11-15T08:02:20.568Z,100371.59
2023-11-15T08:03:21.542Z,100372.27
2023-11-15T08:04:22.526Z,100372.44
2023-11-15T08:05:22.142Z,100372.61
2023-11-15T08:06:22.689Z,100372.70
2023-11-15T08:07:23.190Z,100373.03
2023-11-15T08:08:23.921Z,100373.38
2023-11-15T08:09:24.732Z,100373.70
2023-11-15T08:10:25.247Z,100375.14
2023-11-15T08:11:25.669Z,100376.41
2023-11-15T08:12:26.238Z,100377.97
2023-11-15T08:13:26.924Z,100379.16
2023-11-15T08:14:27.519Z,100379.70
2023-11-15T08:15:28.011Z,100379.84
2023-11-15T08:16:28.457Z,100379.80
2023-11-15T08:17:29.081Z,100379.64
2023-11-15T08:18:29.555Z,100378.91
2023-11-15T08:19:30.117Z,100379.25
2023-11-15T08:20:30.852Z,100379.97
2023-11-15T08:21:31.566Z,100380.81
2023-11-15T08:22:31.581Z,100381.11
2023-11-15T08:23:31.786Z,100381.60
2023-11-15T08:24:32.051Z,100381.81
2023-11-15T08:25:32.034Z,100382.02
2023-11-15T08:26:32.849Z,100382.14
2023-11-15T08:27:33.551Z,100382.42
2023-11-15T08:28:34.298Z,100383.59
2023-11-15T08:29:34.507Z,100384.01
2023-11-15T08:30:35.277Z,100384.39
2023-11-15T08:31:35.813Z,100386.56
2023-11-15T08:31:44.471Z,100546.95
2023-11-15T08:32:45.146Z,100410.77
2023-11-15T08:33:46.128Z,100410.77
2023-11-15T08:34:46.755Z,100411.16
2023-11-15T08:35:46.884Z,100411.23
2023-11-15T08:36:47.182Z,100411.02
2023-11-15T08:37:48.010Z,100411.06
2023-11-15T08:38:48.747Z,100411.80
2023-11-15T08:39:49.704Z,100411.98
2023-11-15T08:40:50.212Z,100413.27
2023-11-15T08:41:51.001Z,100415.50
2023-11-15T08:42:51.625Z,100418.39
2023-11-15T08:43:52.509Z,100421.80
2023-11-15T08:44:53.303Z,100425.84
2023-11-15T08:45:53.906Z,100430.30
2023-11-15T08:46:54.461Z,100434.34
2023-11-15T08:47:55.398Z,100438.34
2023-11-15T08:48:55.478Z,100441.72
2023-11-15T08:49:55.987Z,100444.87
2023-11-15T08:50:56.874Z,100448.70
2023-11-15T08:51:57.475Z,100452.41
2023-11-15T08:52:58.390Z,100456.53
2023-11-15T08:53:58.592Z,100460.06
2023-11-15T08:54:59.329Z,100463.09
2023-11-15T08:55:59.811Z,100466.80
2023-11-15T08:57:00.340Z,100470.16
2023-11-15T08:58:01.004Z,100473.31
2023-11-15T08:59:01.739Z,100477.44
2023-11-15T09:00:01.868Z,100481.73
2023-11-15T09:01:02.468Z,100485.43
2023-11-15T09:02:03.160Z,100490.53
2023-11-15T09:03:04.166Z,100494.82
2023-11-15T09:03:14.322Z,100696.69
2023-11-15T09:04:15.191Z,100579.02
2023-11-15T09:05:15.415Z,100580.03
2023-11-15T09:06:16.013Z,100581.14
2023-11-15T09:07:16.432Z,100582.66
2023-11-15T09:08:17.088Z,100584.27
2023-11-15T09:09:18.140Z,100586.42
2023-11-15T09:10:19.010Z,100588.97
2023-11-15T09:11:19.003Z,100591.67
2023-11-15T09:12:19.366Z,100594.62
2023-11-15T09:13:20.985Z,100597.45
2023-11-15T09:14:20.002Z,100599.69
2023-11-15T09:15:20.513Z,100602.89
2023-11-15T09:16:20.719Z,100605.67
2023-11-15T09:17:20.743Z,100608.81
2023-11-15T09:18:20.945Z,100611.43
2023-11-15T09:19:21.154Z,100614.47
2023-11-15T09:20:22.187Z,100618.02
2023-11-15T09:21:22.997Z,100621.35
2023-11-15T09:22:22.993Z,100625.20
2023-11-15T09:23:28.791Z,100628.99
2023-11-15T09:24:24.482Z,100632.24
2023-11-15T09:25:25.586Z,100635.41
2023-11-15T09:26:25.941Z,100638.11
2023-11-15T09:27:26.162Z,100641.88
2023-11-15T09:28:27.131Z,100645.59
2023-11-15T09:29:27.118Z,100649.59
2023-11-15T09:30:27.194Z,100652.67
2023-11-15T09:31:28.146Z,100656.77
2023-11-15T09:32:29.199Z,100661.03
2023-11-15T09:33:31.241Z,100664.72
2023-11-15T09:34:30.539Z,100668.59
2023-11-15T09:34:39.147Z,100831.48
2023-11-15T09:35:43.800Z,100731.64
2023-11-15T09:36:39.650Z,100730.89
2023-11-15T09:37:40.516Z,100730.12
2023-11-15T09:38:40.914Z,100729.92
2023-11-15T09:39:41.301Z,100730.56
2023-11-15T09:40:41.482Z,100731.41
2023-11-15T09:41:41.527Z,100732.63
2023-11-15T09:42:41.760Z,100733.27
2023-11-15T09:43:41.885Z,100734.00
2023-11-15T09:44:41.906Z,100734.05
2023-11-15T09:45:42.328Z,100734.17
2023-11-15T09:46:42.488Z,100734.30
2023-11-15T09:47:43.902Z,100734.18
2023-11-15T09:48:50.819Z,100733.72
2023-11-15T09:49:43.096Z,100733.25
2023-11-15T09:50:43.887Z,100733.17
2023-11-15T09:51:44.556Z,100732.50
2023-11-15T09:52:44.533Z,100733.09
2023-11-15T09:53:44.849Z,100733.34
2023-11-15T09:54:50.454Z,100733.30
2023-11-15T09:55:45.132Z,100733.92
2023-11-15T09:56:46.330Z,100733.66
2023-11-15T09:57:46.769Z,100733.49
2023-11-15T09:58:46.784Z,100733.39
2023-11-15T09:59:56.259Z,100734.41
2023-11-15T10:00:47.811Z,100735.70
2023-11-15T10:01:48.627Z,100736.38
2023-11-15T10:02:48.806Z,100737.42
2023-11-15T10:03:49.001Z,100739.70
2023-11-15T10:04:48.981Z,100741.09
2023-11-15T10:05:49.128Z,100743.28
2023-11-15T10:06:50.601Z,100745.65
2023-11-15T10:07:05.247Z,100877.67
2023-11-15T10:07:58.827Z,100779.66
2023-11-15T10:08:59.758Z,100779.97
2023-11-15T10:10:00.370Z,100780.77
2023-11-15T10:11:01.321Z,100782.20
2023-11-15T10:12:01.457Z,100783.76
2023-11-15T10:13:02.040Z,100785.16
2023-11-15T10:14:02.105Z,100786.12
2023-11-15T10:15:02.676Z,100788.11
2023-11-15T10:16:03.332Z,100790.21
2023-11-15T10:17:03.975Z,100793.01
2023-11-15T10:18:04.916Z,100795.55
2023-11-15T10:19:05.476Z,100798.22
2023-11-15T10:20:06.122Z,100801.26
2023-11-15T10:21:06.990Z,100804.64
2023-11-15T10:22:07.678Z,100807.59
2023-11-15T10:23:08.026Z,100810.52
2023-11-15T10:24:08.595Z,100813.73
2023-11-15T10:25:09.149Z,100816.86
2023-11-15T10:26:09.881Z,100819.69
2023-11-15T10:27:10.530Z,100823.16
2023-11-15T10:28:10.969Z,100825.95
2023-11-15T10:29:12.285Z,100829.30
2023-11-15T10:30:12.492Z,100831.66
2023-11-15T10:31:13.353Z,100834.36
2023-11-15T10:32:13.817Z,100836.52
2023-11-15T10:33:14.486Z,100839.05
2023-11-15T10:34:18.656Z,100841.20
2023-11-15T10:35:15.352Z,100843.79
2023-11-15T10:36:16.062Z,100846.02
2023-11-15T10:37:16.596Z,100848.25
2023-11-15T10:38:17.119Z,100850.58
2023-11-15T10:38:25.832Z,100971.76
2023-11-15T10:39:26.186Z,100899.69
2023-11-15T10:40:26.773Z,100898.93
2023-11-15T10:41:26.904Z,100899.19
2023-11-15T10:42:27.676Z,100899.40
2023-11-15T10:43:28.233Z,100900.30
2023-11-15T10:44:28.269Z,100901.23
2023-11-15T10:45:29.464Z,100902.12
2023-11-15T10:46:29.091Z,100903.72
2023-11-15T10:47:30.097Z,100905.89
2023-11-15T10:48:31.044Z,100907.06
2023-11-15T10:49:31.762Z,100909.09
2023-11-15T10:50:32.562Z,100911.49
2023-11-15T10:51:33.033Z,100914.20
2023-11-15T10:52:33.959Z,100916.81
2023-11-15T10:53:34.473Z,100919.85
2023-11-15T10:54:34.957Z,100922.67
2023-11-15T10:55:35.332Z,100925.92
2023-11-15T10:56:36.106Z,100929.13
2023-11-15T10:57:36.524Z,100933.09
2023-11-15T10:58:37.047Z,100937.42
2023-11-15T10:59:37.593Z,100942.58
2023-11-15T11:00:37.667Z,100946.75
2023-11-15T11:01:38.443Z,100952.02
2023-11-15T11:02:39.122Z,100956.98
2023-11-15T11:03:39.722Z,100962.50
2023-11-15T11:04:40.564Z,100969.41
2023-11-15T11:05:40.684Z,100976.53
2023-11-15T11:06:41.319Z,100983.30
2023-11-15T11:07:41.912Z,100991.16
2023-11-15T11:08:42.641Z,100999.01
2023-11-15T11:09:43.501Z,101006.61
2023-11-15T11:10:44.014Z,101014.59
2023-11-15T11:10:53.202Z,101177.80
2023-11-15T11:11:54.156Z,101140.30
2023-11-15T11:12:54.587Z,101141.70
2023-11-15T11:13:55.115Z,101141.81
2023-11-15T11:14:55.577Z,101143.13
2023-11-15T11:15:56.183Z,101144.08
2023-11-15T11:16:56.830Z,101145.67
2023-11-15T11:17:58.516Z,101146.05